North Avondale, Colorado
Current Conditions -  °F | °C
As of 11:53 PM on Wednesday 17 Dec 2014 (Local Time) from KPUB Reporting Station
Overcast Overcast  
Wind Chill: 19°   Ceiling: 7000
Heat Index: 25°   Visibility: 7mi
Dew Point: 24°   Wind: 5mph
Humidity: 96%   Direction: 280°W
Pressure: 30.03"   Gusts: NA
Location:  38.0104°N, 104.392°W
Report Text: KPUB 180653Z AUTO 28004KT 7SM OVC070 M04/M04 A3003 RMK AO2 SNE06 SLP194 P0000 T10391044 400111089
Loading
Personal Weather Stations






























Interactive Weather Map New forecast layout! Learn more

10-Day Weather Forecast

Advertisements
Track Severe Weather on mobile